createdAt,value
2022-08-02T00:00:36.040Z,2.10
2022-08-02T00:03:04.535Z,2.30
2022-08-02T00:05:34.347Z,2.17
2022-08-02T00:08:02.951Z,2.50
2022-08-02T00:10:32.349Z,2.07
2022-08-02T00:13:00.859Z,2.00
2022-08-02T00:15:29.255Z,2.30
2022-08-02T00:17:57.719Z,2.03
2022-08-02T00:20:26.173Z,2.47
2022-08-02T00:22:55.952Z,2.50
2022-08-02T00:25:24.402Z,2.20
2022-08-02T00:27:52.879Z,2.20
2022-08-02T00:30:21.352Z,2.53
2022-08-02T00:32:50.032Z,2.70
2022-08-02T00:35:18.702Z,2.53
2022-08-02T00:37:47.169Z,2.50
2022-08-02T00:40:17.001Z,2.80
2022-08-02T00:42:45.403Z,2.25
2022-08-02T00:45:13.904Z,2.10
2022-08-02T00:47:42.339Z,2.10
2022-08-02T00:50:11.282Z,2.30
2022-08-02T00:52:39.709Z,2.07
2022-08-02T00:55:09.041Z,2.20
2022-08-02T00:57:41.508Z,1.80
2022-08-02T01:00:11.182Z,2.40
2022-08-02T01:02:39.593Z,2.17
2022-08-02T01:05:08.992Z,2.60
2022-08-02T01:07:37.382Z,2.33
2022-08-02T01:10:06.750Z,2.40
2022-08-02T01:12:35.309Z,2.30
2022-08-02T01:15:07.729Z,1.97
2022-08-02T01:17:41.310Z,2.07
2022-08-02T01:20:13.936Z,1.77
2022-08-02T01:23:02.772Z,2.03
2022-08-02T01:25:52.032Z,2.17
2022-08-02T01:28:31.142Z,1.87
2022-08-02T01:31:02.548Z,2.33
2022-08-02T01:33:36.079Z,1.90
2022-08-02T01:36:06.704Z,1.80
2022-08-02T01:38:38.583Z,1.87
2022-08-02T01:41:09.370Z,2.03
2022-08-02T01:43:39.812Z,1.77
2022-08-02T01:46:08.549Z,2.00
2022-08-02T01:48:37.680Z,2.13
2022-08-02T01:51:06.660Z,1.90
2022-08-02T01:53:36.454Z,2.10
2022-08-02T01:56:06.951Z,2.10
2022-08-02T01:58:38.886Z,1.80
2022-08-02T02:01:07.987Z,2.10
2022-08-02T02:03:41.685Z,1.90
2022-08-02T02:06:11.624Z,1.90
2022-08-02T02:08:41.927Z,2.00
2022-08-02T02:12:11.941Z,2.33
2022-08-02T02:14:02.275Z,1.77
2022-08-02T02:16:32.077Z,1.90
2022-08-02T02:19:01.553Z,1.97
2022-08-02T02:21:31.379Z,2.30
2022-08-02T02:24:00.298Z,1.70
2022-08-02T02:26:31.710Z,1.83
2022-08-02T02:29:03.924Z,1.60
2022-08-02T02:31:36.714Z,1.90
2022-08-02T02:34:10.360Z,1.43
2022-08-02T02:36:40.821Z,1.67
2022-08-02T02:39:13.632Z,1.80
2022-08-02T02:41:43.929Z,1.70
2022-08-02T02:44:17.523Z,1.87
2022-08-02T02:46:46.274Z,1.63
2022-08-02T02:49:16.241Z,1.70
2022-08-02T02:51:45.741Z,1.87
2022-08-02T02:54:32.150Z,2.10
2022-08-02T02:57:04.247Z,1.77
2022-08-02T02:59:34.450Z,1.97
2022-08-02T03:02:03.372Z,1.70
2022-08-02T03:04:56.192Z,1.90
2022-08-02T03:07:20.748Z,1.90
2022-08-02T03:09:54.405Z,2.20
2022-08-02T03:12:30.995Z,2.30
2022-08-02T03:15:04.812Z,1.90
2022-08-02T03:17:41.028Z,2.10
2022-08-02T03:20:14.664Z,2.10
2022-08-02T03:22:44.034Z,1.93
2022-08-02T03:25:13.375Z,1.93
2022-08-02T03:27:42.453Z,2.37
2022-08-02T03:30:14.334Z,2.07
2022-08-02T03:32:44.957Z,2.00
2022-08-02T03:35:19.911Z,1.83
2022-08-02T03:37:53.357Z,2.20
2022-08-02T03:40:22.039Z,2.20
2022-08-02T03:42:50.828Z,1.73
2022-08-02T03:45:21.293Z,1.93
2022-08-02T03:47:49.979Z,1.90
2022-08-02T03:50:19.500Z,2.20
2022-08-02T03:52:48.824Z,2.10
2022-08-02T03:55:17.293Z,2.23
2022-08-02T03:57:45.940Z,1.93
2022-08-02T04:00:20.870Z,2.20
2022-08-02T04:02:49.825Z,2.47
2022-08-02T04:05:18.915Z,1.57
2022-08-02T04:08:31.750Z,2.13
2022-08-02T04:10:56.813Z,2.27
2022-08-02T04:13:31.617Z,2.00
2022-08-02T04:16:06.280Z,2.13
2022-08-02T04:18:41.761Z,1.70
2022-08-02T04:21:13.748Z,2.10
2022-08-02T04:23:43.582Z,2.00
2022-08-02T04:26:12.910Z,2.37
2022-08-02T04:28:41.779Z,1.93
2022-08-02T04:31:11.677Z,1.97
2022-08-02T04:33:40.350Z,1.97
2022-08-02T04:36:10.667Z,2.73
2022-08-02T04:38:39.174Z,2.53
2022-08-02T04:41:07.620Z,2.27
2022-08-02T04:43:36.213Z,2.47
2022-08-02T04:46:04.941Z,2.57
2022-08-02T04:48:34.702Z,3.00
2022-08-02T04:51:03.174Z,2.90
2022-08-02T04:53:31.666Z,3.30
2022-08-02T04:56:00.387Z,3.10
2022-08-02T04:58:44.062Z,2.87
2022-08-02T05:01:12.576Z,3.57
2022-08-02T05:03:42.491Z,2.70
2022-08-02T05:06:18.966Z,2.47
2022-08-02T05:08:52.714Z,2.87
2022-08-02T05:11:34.395Z,3.37
2022-08-02T05:14:05.640Z,3.20
2022-08-02T05:16:34.241Z,3.70
2022-08-02T05:19:04.325Z,3.50
2022-08-02T05:21:32.940Z,3.80
2022-08-02T05:24:02.105Z,4.00
2022-08-02T05:26:30.774Z,4.10
2022-08-02T05:28:59.403Z,2.63
2022-08-02T05:31:27.858Z,3.57
2022-08-02T05:33:56.326Z,3.77
2022-08-02T05:36:26.152Z,4.00
2022-08-02T05:39:04.674Z,3.57
2022-08-02T05:41:33.722Z,3.87
2022-08-02T05:44:02.477Z,4.00
2022-08-02T05:46:31.154Z,4.00
2022-08-02T05:48:59.672Z,4.27
2022-08-02T05:51:32.490Z,4.20
2022-08-02T05:54:06.213Z,3.30
2022-08-02T05:56:36.417Z,3.63
2022-08-02T05:59:07.856Z,2.80
2022-08-02T06:01:40.122Z,2.93
2022-08-02T06:04:09.780Z,3.60
2022-08-02T06:06:45.008Z,3.50
2022-08-02T06:09:23.294Z,3.73
2022-08-02T06:12:11.628Z,2.90
2022-08-02T06:14:41.116Z,3.50
2022-08-02T06:17:09.913Z,2.93
2022-08-02T06:19:51.143Z,3.43
2022-08-02T06:22:34.142Z,3.10
2022-08-02T06:25:06.330Z,3.27
2022-08-02T06:27:35.410Z,3.43
2022-08-02T06:30:05.399Z,3.00
2022-08-02T06:32:34.347Z,2.87
2022-08-02T06:35:03.146Z,3.07
2022-08-02T06:37:38.627Z,2.80
2022-08-02T06:40:13.175Z,2.70
2022-08-02T06:42:50.101Z,2.93
2022-08-02T06:45:19.004Z,2.97
2022-08-02T06:47:47.780Z,3.40
2022-08-02T06:50:16.418Z,3.63
2022-08-02T06:52:46.257Z,2.60
2022-08-02T06:55:17.620Z,3.00
2022-08-02T06:57:46.165Z,2.57
2022-08-02T07:00:15.646Z,2.70
2022-08-02T07:02:45.298Z,3.10
2022-08-02T07:05:13.933Z,3.43
2022-08-02T07:07:42.465Z,2.93
2022-08-02T07:10:12.553Z,2.77
2022-08-02T07:12:41.123Z,2.63
2022-08-02T07:15:12.514Z,2.60
2022-08-02T07:17:41.387Z,2.40
2022-08-02T07:20:10.784Z,2.30
2022-08-02T07:22:39.249Z,2.10
2022-08-02T07:25:08.892Z,2.70
2022-08-02T07:27:38.894Z,2.70
2022-08-02T07:30:08.882Z,2.13
2022-08-02T07:32:37.399Z,2.47
2022-08-02T07:35:07.750Z,2.60
2022-08-02T07:37:55.580Z,2.47
2022-08-02T07:40:28.527Z,2.57
2022-08-02T07:43:03.588Z,2.70
2022-08-02T07:45:33.235Z,2.40
2022-08-02T07:48:04.582Z,2.07
2022-08-02T07:50:33.251Z,2.53
2022-08-02T07:53:02.962Z,2.10
2022-08-02T07:55:39.853Z,2.50
2022-08-02T07:58:13.181Z,3.07
2022-08-02T08:00:43.770Z,2.40
2022-08-02T08:03:12.855Z,2.40
2022-08-02T08:05:41.717Z,2.33
2022-08-02T08:08:13.787Z,2.87
2022-08-02T08:10:45.942Z,2.60
2022-08-02T08:13:15.802Z,2.43
2022-08-02T08:15:52.499Z,2.07
2022-08-02T08:18:22.079Z,2.40
2022-08-02T08:20:51.630Z,1.90
2022-08-02T08:23:20.107Z,2.37
2022-08-02T08:25:48.653Z,2.30
2022-08-02T08:28:18.561Z,2.47
2022-08-02T08:30:47.426Z,2.10
2022-08-02T08:33:16.302Z,2.00
2022-08-02T08:35:44.721Z,2.10
2022-08-02T08:38:13.303Z,2.23
2022-08-02T08:40:42.165Z,2.47
2022-08-02T08:43:10.912Z,2.60
2022-08-02T08:45:40.787Z,2.23
2022-08-02T08:48:13.767Z,2.07
2022-08-02T08:50:47.716Z,2.20
2022-08-02T08:53:16.330Z,2.40
2022-08-02T08:55:49.886Z,2.30
2022-08-02T08:58:18.515Z,2.63
2022-08-02T09:00:48.609Z,2.30
2022-08-02T09:03:19.612Z,2.30
2022-08-02T09:05:48.161Z,2.03
2022-08-02T09:08:17.225Z,2.37
2022-08-02T09:10:47.181Z,2.17
2022-08-02T09:13:39.121Z,2.33
2022-08-02T09:16:12.811Z,2.30
2022-08-02T09:18:45.431Z,2.97
2022-08-02T09:21:15.448Z,2.40
2022-08-02T09:23:46.370Z,2.20
2022-08-02T09:26:16.395Z,2.37
2022-08-02T09:28:46.539Z,2.10
2022-08-02T09:31:18.126Z,2.27
2022-08-02T09:33:51.602Z,2.40
2022-08-02T09:36:20.141Z,2.20
2022-08-02T09:38:57.232Z,2.10
2022-08-02T09:41:27.274Z,2.23
2022-08-02T09:44:04.920Z,2.13
2022-08-02T09:46:38.741Z,1.70
2022-08-02T09:49:10.069Z,2.13
2022-08-02T09:51:40.518Z,1.80
2022-08-02T09:54:12.087Z,2.00
2022-08-02T09:56:43.250Z,1.90
2022-08-02T09:59:12.265Z,2.10
2022-08-02T10:01:42.622Z,1.83
2022-08-02T10:04:22.550Z,2.07
2022-08-02T10:06:52.579Z,2.03
2022-08-02T10:09:21.848Z,2.17
2022-08-02T10:11:50.725Z,2.00
2022-08-02T10:14:20.581Z,1.97
2022-08-02T10:16:50.340Z,2.15
2022-08-02T10:19:18.740Z,1.70
2022-08-02T10:22:10.158Z,1.70
2022-08-02T10:24:39.760Z,1.80
2022-08-02T10:27:17.877Z,1.92
2022-08-02T10:29:54.989Z,1.65
2022-08-02T10:32:29.598Z,1.67
2022-08-02T10:35:20.107Z,1.67
2022-08-02T10:37:54.048Z,1.73
2022-08-02T10:40:26.924Z,1.80
2022-08-02T10:43:00.556Z,1.77
2022-08-02T10:45:29.981Z,1.48
2022-08-02T10:48:02.434Z,1.75
2022-08-02T10:50:54.743Z,1.98
2022-08-02T10:53:24.909Z,1.73
2022-08-02T10:55:53.710Z,1.90
2022-08-02T10:58:26.273Z,1.83
2022-08-02T11:00:59.050Z,1.90
2022-08-02T11:03:40.706Z,1.35
2022-08-02T11:06:24.685Z,1.50
2022-08-02T11:09:32.481Z,1.88
2022-08-02T11:12:04.247Z,1.70
2022-08-02T11:14:34.135Z,1.52
2022-08-02T11:17:07.318Z,1.60
2022-08-02T11:20:27.176Z,1.58
2022-08-02T11:22:56.838Z,1.30
2022-08-02T11:26:00.970Z,1.20
2022-08-02T11:28:24.752Z,1.73
2022-08-02T11:30:58.723Z,1.30
2022-08-02T11:33:34.471Z,1.40
2022-08-02T11:36:07.024Z,1.10
2022-08-02T11:38:35.553Z,1.55
2022-08-02T11:41:06.249Z,1.50
2022-08-02T11:43:38.911Z,1.10
2022-08-02T11:46:14.008Z,1.38
2022-08-02T11:48:43.931Z,1.35
2022-08-02T11:51:15.254Z,1.35
2022-08-02T11:53:46.000Z,1.30
2022-08-02T11:56:17.975Z,1.13
2022-08-02T11:59:07.165Z,1.23
2022-08-02T12:01:45.116Z,1.40
2022-08-02T12:04:22.751Z,1.17
2022-08-02T12:06:59.385Z,1.33
2022-08-02T12:09:29.005Z,1.45
2022-08-02T12:11:57.773Z,1.20
2022-08-02T12:14:28.056Z,1.02
2022-08-02T12:17:14.752Z,1.30
2022-08-02T12:19:44.414Z,1.60
2022-08-02T12:22:19.800Z,1.42
2022-08-02T12:24:54.136Z,1.50
2022-08-02T12:27:33.609Z,1.42
2022-08-02T12:30:05.547Z,1.40
2022-08-02T12:32:34.095Z,1.30
2022-08-02T12:35:09.599Z,1.40
2022-08-02T12:37:41.075Z,1.20
2022-08-02T12:40:20.792Z,1.10
2022-08-02T12:42:56.341Z,1.40
2022-08-02T12:45:25.467Z,1.25
2022-08-02T12:47:55.380Z,1.20
2022-08-02T12:50:27.404Z,1.50
2022-08-02T12:53:07.272Z,1.30
2022-08-02T12:56:01.875Z,1.25
2022-08-02T12:58:27.026Z,1.00
2022-08-02T13:00:57.393Z,1.10
2022-08-02T13:04:11.579Z,1.50
2022-08-02T13:06:40.847Z,1.17
2022-08-02T13:09:13.450Z,1.23
2022-08-02T13:11:42.893Z,1.25
2022-08-02T13:14:13.099Z,1.20
2022-08-02T13:16:42.275Z,1.30
2022-08-02T13:19:10.753Z,1.35
2022-08-02T13:21:41.752Z,1.10
2022-08-02T13:24:38.788Z,1.10
2022-08-02T13:27:17.894Z,1.38
2022-08-02T13:29:46.361Z,1.20
2022-08-02T13:32:15.176Z,1.20
2022-08-02T13:34:43.945Z,1.17
2022-08-02T13:37:12.449Z,1.15
2022-08-02T13:39:45.664Z,1.30
2022-08-02T13:42:24.096Z,1.45
2022-08-02T13:44:52.669Z,1.40
2022-08-02T13:47:26.663Z,1.40
2022-08-02T13:50:05.659Z,1.35
2022-08-02T13:52:35.177Z,1.50
2022-08-02T13:55:05.596Z,1.45
2022-08-02T13:57:41.420Z,1.00
2022-08-02T14:00:11.573Z,1.25
2022-08-02T14:02:40.627Z,0.93
2022-08-02T14:05:09.935Z,1.20
2022-08-02T14:07:38.951Z,1.70
2022-08-02T14:10:09.876Z,1.55
2022-08-02T14:12:38.344Z,0.93
2022-08-02T14:15:07.774Z,1.00
2022-08-02T14:17:36.159Z,1.30
2022-08-02T14:20:05.066Z,0.77
2022-08-02T14:22:33.570Z,1.02
2022-08-02T14:25:09.321Z,1.00
2022-08-02T14:27:39.605Z,1.13
2022-08-02T14:30:09.342Z,1.10
2022-08-02T14:32:37.858Z,0.80
2022-08-02T14:35:07.710Z,1.20
2022-08-02T14:37:36.296Z,1.00
2022-08-02T14:40:05.569Z,1.30
2022-08-02T14:42:33.983Z,1.10
2022-08-02T14:45:09.605Z,0.77
2022-08-02T14:47:39.071Z,1.23
2022-08-02T14:50:08.074Z,1.00
2022-08-02T14:52:36.551Z,1.10
2022-08-02T14:55:05.581Z,1.00
2022-08-02T14:57:34.212Z,1.30
2022-08-02T15:00:06.029Z,0.80
2022-08-02T15:02:34.487Z,1.00
2022-08-02T15:05:02.943Z,1.00
2022-08-02T15:07:31.457Z,1.00
2022-08-02T15:09:59.908Z,1.13
2022-08-02T15:12:28.334Z,0.80
2022-08-02T15:14:56.714Z,1.15
2022-08-02T15:17:26.494Z,1.40
2022-08-02T15:19:57.910Z,1.02
2022-08-02T15:22:29.058Z,0.80
2022-08-02T15:24:57.945Z,1.02
2022-08-02T15:27:26.499Z,0.82
2022-08-02T15:30:00.148Z,1.10
2022-08-02T15:32:30.397Z,0.70
2022-08-02T15:34:58.884Z,1.10
2022-08-02T15:37:31.004Z,0.80
2022-08-02T15:40:00.187Z,1.08
2022-08-02T15:42:30.776Z,0.98
2022-08-02T15:45:00.434Z,1.13
2022-08-02T15:47:30.281Z,1.17
2022-08-02T15:49:58.884Z,1.00
2022-08-02T15:52:27.612Z,1.05
2022-08-02T15:54:56.339Z,1.00
2022-08-02T15:57:24.906Z,1.10
2022-08-02T15:59:54.102Z,1.00
2022-08-02T16:02:22.838Z,0.82
2022-08-02T16:04:52.677Z,0.80
2022-08-02T16:07:21.084Z,1.05
2022-08-02T16:09:49.520Z,1.00
2022-08-02T16:12:18.455Z,0.90
2022-08-02T16:14:47.220Z,0.90
2022-08-02T16:17:15.677Z,1.08
2022-08-02T16:20:06.464Z,1.08
2022-08-02T16:22:34.885Z,0.70
2022-08-02T16:25:03.911Z,0.90
2022-08-02T16:27:32.839Z,0.80
2022-08-02T16:30:21.243Z,0.85
2022-08-02T16:32:49.784Z,1.10
2022-08-02T16:35:19.587Z,0.98
2022-08-02T16:37:50.463Z,0.90
2022-08-02T16:40:21.155Z,1.02
2022-08-02T16:42:50.533Z,0.90
2022-08-02T16:45:20.897Z,0.90
2022-08-02T16:47:56.276Z,1.13
2022-08-02T16:50:29.535Z,1.13
2022-08-02T16:52:58.979Z,1.10
2022-08-02T16:55:29.080Z,0.90
2022-08-02T16:58:00.430Z,0.70
2022-08-02T17:00:29.936Z,0.93
2022-08-02T17:02:59.295Z,0.85
2022-08-02T17:05:37.593Z,0.98
2022-08-02T17:08:16.095Z,0.88
2022-08-02T17:10:46.050Z,0.90
2022-08-02T17:13:14.623Z,0.90
2022-08-02T17:16:17.060Z,0.77
2022-08-02T17:18:32.502Z,0.80
2022-08-02T17:21:04.831Z,0.90
2022-08-02T17:24:06.240Z,0.90
2022-08-02T17:26:23.315Z,0.85
2022-08-02T17:29:14.135Z,0.90
2022-08-02T17:31:46.567Z,0.90
2022-08-02T17:34:30.888Z,0.85
2022-08-02T17:37:00.856Z,1.20
2022-08-02T17:39:33.792Z,0.70
2022-08-02T17:42:02.899Z,0.80
2022-08-02T17:44:37.476Z,0.80
2022-08-02T17:47:08.615Z,1.00
2022-08-02T17:49:44.451Z,1.00
2022-08-02T17:52:49.950Z,0.80
2022-08-02T17:55:10.754Z,0.90
2022-08-02T17:57:57.694Z,1.08
2022-08-02T18:00:33.618Z,1.33
2022-08-02T18:03:05.841Z,1.02
2022-08-02T18:05:40.416Z,0.95
2022-08-02T18:08:24.457Z,0.80
2022-08-02T18:10:53.606Z,1.10
2022-08-02T18:13:22.330Z,0.80
2022-08-02T18:15:52.310Z,0.90
2022-08-02T18:18:29.335Z,0.90
2022-08-02T18:21:16.143Z,1.02
2022-08-02T18:23:58.503Z,1.10
2022-08-02T18:26:28.628Z,0.80
2022-08-02T18:28:57.248Z,1.00
2022-08-02T18:31:27.419Z,1.00
2022-08-02T18:34:01.961Z,1.10
2022-08-02T18:36:31.681Z,0.85
2022-08-02T18:39:08.099Z,1.02
2022-08-02T18:41:37.979Z,1.00
2022-08-02T18:44:07.491Z,1.40
2022-08-02T18:46:36.253Z,1.40
2022-08-02T18:49:14.839Z,1.60
2022-08-02T18:51:45.078Z,1.20
2022-08-02T18:54:37.311Z,1.73
2022-08-02T18:58:02.001Z,1.23
2022-08-02T19:00:01.758Z,1.20
2022-08-02T19:02:30.464Z,0.90
2022-08-02T19:04:59.081Z,1.20
2022-08-02T19:07:49.787Z,1.52
2022-08-02T19:10:20.024Z,1.27
2022-08-02T19:12:51.647Z,1.23
2022-08-02T19:15:20.472Z,0.90
2022-08-02T19:17:55.221Z,1.45
2022-08-02T19:20:26.386Z,1.00
2022-08-02T19:22:57.746Z,1.10
2022-08-02T19:25:28.243Z,1.00
2022-08-02T19:28:05.017Z,1.17
2022-08-02T19:30:36.697Z,1.40
2022-08-02T19:36:01.941Z,1.10
2022-08-02T19:38:32.443Z,1.15
2022-08-02T19:41:02.347Z,1.20
2022-08-02T19:44:25.146Z,1.30
2022-08-02T19:46:20.357Z,1.40
2022-08-02T19:48:50.691Z,1.08
2022-08-02T19:51:54.822Z,1.23
2022-08-02T19:54:10.935Z,1.50
2022-08-02T19:56:42.449Z,1.60
2022-08-02T19:59:13.102Z,2.10
2022-08-02T20:02:01.020Z,1.67
2022-08-02T20:04:29.575Z,1.40
2022-08-02T20:07:00.347Z,1.58
2022-08-02T20:09:33.286Z,1.50
2022-08-02T20:12:14.135Z,1.80
2022-08-02T20:14:51.066Z,2.30
2022-08-02T20:17:21.085Z,2.28
2022-08-02T20:19:49.699Z,2.65
2022-08-02T20:22:20.731Z,2.38
2022-08-02T20:24:49.276Z,2.15
2022-08-02T20:27:24.840Z,2.10
2022-08-02T20:29:55.659Z,1.70
2022-08-02T20:32:24.104Z,2.20
2022-08-02T20:34:53.298Z,2.00
2022-08-02T20:37:59.306Z,1.85
2022-08-02T20:40:16.988Z,1.40
2022-08-02T20:42:48.473Z,2.28
2022-08-02T20:45:17.426Z,1.80
2022-08-02T20:47:49.786Z,1.60
2022-08-02T20:50:37.315Z,1.50
2022-08-02T20:53:06.495Z,1.98
2022-08-02T20:55:35.726Z,1.70
2022-08-02T20:58:06.057Z,1.70
2022-08-02T21:00:40.457Z,2.35
2022-08-02T21:03:11.279Z,1.30
2022-08-02T21:05:55.227Z,1.70
2022-08-02T21:08:24.865Z,1.88
2022-08-02T21:10:55.359Z,1.60
2022-08-02T21:13:26.403Z,3.33
2022-08-02T21:15:57.911Z,2.78
2022-08-02T21:18:37.839Z,2.38
2022-08-02T21:21:10.579Z,2.40
2022-08-02T21:23:48.514Z,2.33
2022-08-02T21:26:25.647Z,2.38
2022-08-02T21:28:58.059Z,2.25
2022-08-02T21:31:29.694Z,2.00
2022-08-02T21:34:00.272Z,2.47
2022-08-02T21:36:30.525Z,1.95
2022-08-02T21:39:04.744Z,2.00
2022-08-02T21:41:39.743Z,2.53
2022-08-02T21:44:16.833Z,2.55
2022-08-02T21:46:46.569Z,1.80
2022-08-02T21:49:18.485Z,2.42
2022-08-02T21:51:49.397Z,2.38
2022-08-02T21:54:20.993Z,2.50
2022-08-02T21:56:52.000Z,2.50
2022-08-02T21:59:26.156Z,2.60
2022-08-02T22:01:56.659Z,2.53
2022-08-02T22:04:26.208Z,2.90
2022-08-02T22:06:55.138Z,2.70
2022-08-02T22:12:16.826Z,2.20
2022-08-02T22:14:54.012Z,2.03
2022-08-02T22:17:50.411Z,2.13
2022-08-02T22:20:14.565Z,2.08
2022-08-02T22:22:44.138Z,2.38
2022-08-02T22:25:26.546Z,2.08
2022-08-02T22:28:38.085Z,1.90
2022-08-02T22:30:52.889Z,2.08
2022-08-02T22:34:00.834Z,1.90
2022-08-02T22:36:30.949Z,1.80
2022-08-02T22:39:00.203Z,1.95
2022-08-02T22:42:02.362Z,1.80
2022-08-02T22:44:18.709Z,1.80
2022-08-02T22:46:50.290Z,1.75
2022-08-02T22:49:37.598Z,2.00
2022-08-02T22:52:08.317Z,1.80
2022-08-02T22:54:39.446Z,2.20
2022-08-02T22:57:11.437Z,2.05
2022-08-02T22:58:48.535Z,1.00
2022-08-02T22:59:12.331Z,2.65
2022-08-02T22:59:41.117Z,2.58
2022-08-02T23:02:11.806Z,2.33
2022-08-02T23:04:40.331Z,2.40
2022-08-02T23:07:08.875Z,2.30
2022-08-02T23:09:37.555Z,2.20
2022-08-02T23:12:06.551Z,2.08
2022-08-02T23:14:36.412Z,2.07
2022-08-02T23:17:22.524Z,2.05
2022-08-02T23:19:52.350Z,2.30
2022-08-02T23:22:24.310Z,2.40
2022-08-02T23:24:59.380Z,2.10
2022-08-02T23:27:27.913Z,2.40
2022-08-02T23:29:56.467Z,2.03
2022-08-02T23:32:26.225Z,1.70
2022-08-02T23:34:56.458Z,2.20
2022-08-02T23:37:25.085Z,4.10
2022-08-02T23:39:53.538Z,3.60
2022-08-02T23:42:23.248Z,3.20
2022-08-02T23:44:51.736Z,2.33
2022-08-02T23:47:20.276Z,2.20
2022-08-02T23:49:48.714Z,2.22
2022-08-02T23:52:18.870Z,2.03
2022-08-02T23:54:47.623Z,2.38
2022-08-02T23:57:20.113Z,2.17
2022-08-02T23:59:51.561Z,2.00
